Lordville, New York
Current Conditions -  °F | °C
As of 8:55 AM on Friday 24 Oct 2014 (Local Time) from KMSV Reporting Station
Overcast Overcast  
Wind Chill: 38°   Ceiling: 1600
Heat Index: 45°   Visibility: 10mi
Dew Point: 41°   Wind: 15mph
Humidity: 87%   Direction: 310°NW
Pressure: 29.85"   Gusts: 22mph
Location:  41.9099°N, 75.1815°W
Report Text: KMSV 241255Z 31013G19KT 10SM OVC016 07/05 A2985 RMK AO1 70009
Loading
Personal Weather Stations






























Interactive Weather Map
Tropical Storm Tracking
New forecast layout! Learn more

10-Day Weather Forecast

Advertisements
Track Severe Weather on mobile